Time;durP1;ratioP1;P1;durP2;ratioP2;P2;SDS_P1;SDS_P2;PMS_P1;PMS_P2;Temp;Humidity;BMP_temperature;BMP_pressure;BME280_temperature;BME280_humidity;BME280_pressure;Samples;Min_cycle;Max_cycle;Signal;HPM_P1;HPM_P2
2021/06/11 00:01:41;;;;;;;8.00;7.30;;;17.40;99.90;;;;;;5086626;28;20036;-90
2021/06/11 00:04:07;;;;;;;8.80;7.93;;;17.40;99.90;;;;;;5088232;28;20126;-90
2021/06/11 00:06:33;;;;;;;7.85;7.15;;;17.40;99.90;;;;;;5090414;28;20441;-90
2021/06/11 00:09:01;;;;;;;8.63;7.82;;;17.40;99.90;;;;;;5087924;28;20042;-90
2021/06/11 00:11:27;;;;;;;8.10;7.40;;;17.40;99.90;;;;;;5088940;28;20036;-90
2021/06/11 00:13:53;;;;;;;7.55;6.75;;;17.50;99.90;;;;;;5091093;28;20113;-90
2021/06/11 00:16:19;;;;;;;9.70;7.60;;;17.40;99.90;;;;;;5092147;28;20048;-89
2021/06/11 00:18:45;;;;;;;8.23;7.43;;;17.40;99.90;;;;;;5090698;28;20039;-90
2021/06/11 00:21:11;;;;;;;8.93;8.02;;;17.50;99.90;;;;;;5089941;28;20487;-90
2021/06/11 00:23:37;;;;;;;7.57;6.88;;;17.40;99.90;;;;;;5089416;28;20052;-90
2021/06/11 00:26:03;;;;;;;7.57;6.88;;;17.40;99.90;;;;;;5088547;28;20094;-89
2021/06/11 00:28:28;;;;;;;7.78;7.00;;;17.40;99.90;;;;;;5090488;28;20032;-89
2021/06/11 00:30:54;;;;;;;8.40;7.57;;;17.50;99.90;;;;;;5090669;28;20497;-90
2021/06/11 00:33:20;;;;;;;8.82;8.02;;;17.50;99.90;;;;;;5087111;28;20044;-89
2021/06/11 00:35:46;;;;;;;7.90;7.10;;;17.50;99.90;;;;;;5087748;28;20036;-90
2021/06/11 00:38:11;;;;;;;8.25;7.55;;;17.50;99.90;;;;;;5086310;28;20393;-89
2021/06/11 00:40:39;;;;;;;8.63;7.82;;;17.50;99.90;;;;;;5090320;28;20032;-90
2021/06/11 00:43:12;;;;;;;7.85;7.10;;;17.50;99.90;;;;;;5086863;28;20046;-90
2021/06/11 00:45:45;;;;;;;7.60;6.80;;;17.50;99.90;;;;;;5084875;28;20033;-89
2021/06/11 00:48:12;;;;;;;7.93;7.20;;;17.50;99.90;;;;;;5088501;28;20039;-90
2021/06/11 00:50:41;;;;;;;7.53;6.85;;;17.50;99.90;;;;;;5085360;28;20042;-89
2021/06/11 00:53:10;;;;;;;8.50;7.55;;;17.50;99.90;;;;;;5086615;28;20060;-89
2021/06/11 00:55:43;;;;;;;7.97;6.95;;;17.50;99.90;;;;;;5086197;28;20036;-90
2021/06/11 00:58:13;;;;;;;8.73;7.22;;;17.50;99.90;;;;;;5087405;28;20477;-90
2021/06/11 01:00:42;;;;;;;7.78;7.13;;;17.50;99.90;;;;;;5088609;28;20052;-90
2021/06/11 01:03:13;;;;;;;7.80;7.10;;;17.50;99.90;;;;;;5091693;28;20040;-90
2021/06/11 01:05:42;;;;;;;8.82;7.30;;;17.50;99.90;;;;;;5095397;28;20097;-90
2021/06/11 01:08:10;;;;;;;8.57;7.80;;;17.50;99.90;;;;;;5086119;28;20131;-90
2021/06/11 01:10:36;;;;;;;7.95;7.25;;;17.50;99.90;;;;;;5089587;28;20032;-90
2021/06/11 01:13:03;;;;;;;8.18;7.38;;;17.50;99.90;;;;;;5085793;28;20060;-90
2021/06/11 01:15:29;;;;;;;8.40;7.60;;;17.50;99.90;;;;;;5083403;28;20186;-89
2021/06/11 01:17:55;;;;;;;8.32;7.53;;;17.50;99.90;;;;;;5087047;28;20032;-89
2021/06/11 01:20:22;;;;;;;8.30;7.50;;;17.50;99.90;;;;;;5087596;28;20038;-89
2021/06/11 01:23:00;;;;;;;8.23;7.53;;;17.50;99.90;;;;;;5082183;28;20089;-89
2021/06/11 01:25:46;;;;;;;8.13;7.43;;;17.50;99.90;;;;;;5085736;28;20047;-89
2021/06/11 01:28:12;;;;;;;8.73;7.38;;;17.50;99.90;;;;;;5083578;28;20039;-89
2021/06/11 01:30:39;;;;;;;9.00;7.63;;;17.50;99.90;;;;;;5085008;28;20028;-90
2021/06/11 01:33:06;;;;;;;9.45;8.65;;;17.50;99.90;;;;;;5085393;28;20043;-90
2021/06/11 01:35:53;;;;;;;7.28;6.57;;;17.50;99.90;;;;;;5086642;28;20036;-90
2021/06/11 01:38:22;;;;;;;8.25;7.45;;;17.50;99.90;;;;;;5087770;28;20040;-90
2021/06/11 01:40:53;;;;;;;8.18;7.43;;;17.50;99.90;;;;;;5088324;28;20069;-89
2021/06/11 01:43:22;;;;;;;7.88;7.07;;;17.50;99.90;;;;;;5088176;28;20196;-90
2021/06/11 01:45:50;;;;;;;8.25;7.50;;;17.50;99.90;;;;;;5087068;28;20038;-90
2021/06/11 01:48:18;;;;;;;8.18;7.47;;;17.50;99.90;;;;;;5085329;28;20032;-89
2021/06/11 01:50:45;;;;;;;8.38;7.47;;;17.50;99.90;;;;;;5086256;28;20134;-90
2021/06/11 01:53:14;;;;;;;8.40;7.60;;;17.50;99.90;;;;;;5090385;28;20119;-90
2021/06/11 01:55:41;;;;;;;9.48;7.25;;;17.50;99.90;;;;;;5089756;28;20036;-90
2021/06/11 01:58:11;;;;;;;8.98;7.95;;;17.50;99.90;;;;;;5093273;28;20028;-90
2021/06/11 02:00:38;;;;;;;8.70;7.90;;;17.50;99.90;;;;;;5088019;28;20062;-90
2021/06/11 02:03:03;;;;;;;8.30;7.50;;;17.50;99.90;;;;;;5086761;28;20044;-90
2021/06/11 02:05:29;;;;;;;10.85;8.18;;;17.50;99.90;;;;;;5088289;28;20048;-89
2021/06/11 02:07:56;;;;;;;8.25;7.47;;;17.50;99.90;;;;;;5089842;28;20028;-90
2021/06/11 02:10:24;;;;;;;8.50;7.70;;;17.50;99.90;;;;;;5087097;28;20047;-90
2021/06/11 02:12:51;;;;;;;8.65;7.82;;;17.50;99.90;;;;;;5085730;28;20031;-90
2021/06/11 02:15:19;;;;;;;8.95;8.05;;;17.50;99.90;;;;;;5085159;28;20070;-89
2021/06/11 02:17:49;;;;;;;8.95;8.10;;;17.50;99.90;;;;;;5083937;28;20032;-90
2021/06/11 02:20:17;;;;;;;8.55;7.75;;;17.50;99.90;;;;;;5085111;28;20032;-89
2021/06/11 02:22:45;;;;;;;8.18;7.32;;;17.50;99.90;;;;;;5085746;28;20028;-90
2021/06/11 02:25:14;;;;;;;8.38;7.32;;;17.50;99.90;;;;;;5085198;28;20050;-90
2021/06/11 02:27:40;;;;;;;8.10;7.32;;;17.60;99.90;;;;;;5077025;28;20039;-90
2021/06/11 02:30:12;;;;;;;8.40;7.60;;;17.60;99.90;;;;;;5085065;28;20062;-90
2021/06/11 02:32:39;;;;;;;8.40;7.60;;;17.70;99.90;;;;;;5086665;28;20168;-90
2021/06/11 02:35:14;;;;;;;9.23;8.30;;;17.70;99.90;;;;;;5089163;28;20044;-90
2021/06/11 02:37:40;;;;;;;9.00;8.10;;;17.80;99.90;;;;;;5087503;28;20116;-89
2021/06/11 02:40:08;;;;;;;9.27;8.43;;;17.80;99.90;;;;;;5085916;28;20044;-90
2021/06/11 02:42:34;;;;;;;9.60;8.60;;;17.90;99.90;;;;;;5087092;28;20032;-90
2021/06/11 02:45:09;;;;;;;9.30;8.40;;;17.90;99.90;;;;;;5087074;28;20493;-90
2021/06/11 02:47:49;;;;;;;9.27;8.38;;;18.00;99.90;;;;;;5089065;28;20043;-90
2021/06/11 02:50:26;;;;;;;8.93;8.13;;;18.00;99.90;;;;;;5096603;28;20048;-89
2021/06/11 02:52:56;;;;;;;8.80;8.00;;;18.10;99.90;;;;;;5088101;28;20466;-90
2021/06/11 02:55:23;;;;;;;9.30;8.50;;;18.00;99.90;;;;;;5088991;28;20067;-91
2021/06/11 02:58:00;;;;;;;9.48;8.55;;;18.10;99.90;;;;;;5089166;28;20028;-90
2021/06/11 03:00:29;;;;;;;9.23;8.32;;;18.10;99.90;;;;;;5091448;28;20040;-90
2021/06/11 03:03:15;;;;;;;8.32;7.53;;;18.10;99.90;;;;;;5092122;28;20028;-90
2021/06/11 03:05:43;;;;;;;9.02;8.15;;;18.10;99.90;;;;;;5088062;28;20044;-89
2021/06/11 03:08:12;;;;;;;8.77;7.88;;;18.10;99.90;;;;;;5090091;28;20032;-89
2021/06/11 03:10:41;;;;;;;8.88;8.07;;;18.20;99.90;;;;;;5088123;28;20075;-89
2021/06/11 03:13:11;;;;;;;9.32;8.45;;;18.20;99.90;;;;;;5090456;28;20101;-90
2021/06/11 03:15:37;;;;;;;10.20;9.02;;;18.30;99.90;;;;;;5093815;28;20127;-90
2021/06/11 03:18:09;;;;;;;10.25;9.00;;;18.20;99.90;;;;;;5090515;28;20040;-89
2021/06/11 03:20:40;;;;;;;9.65;8.75;;;18.20;99.90;;;;;;5090341;28;20047;-90
2021/06/11 03:23:10;;;;;;;10.32;9.32;;;18.20;99.90;;;;;;5090489;28;20036;-90
2021/06/11 03:26:00;;;;;;;11.02;9.40;;;18.20;99.90;;;;;;5092424;28;20036;-90
2021/06/11 03:28:42;;;;;;;9.90;8.90;;;18.20;99.90;;;;;;5087929;28;20028;-89
2021/06/11 03:31:18;;;;;;;9.85;8.85;;;18.20;99.90;;;;;;5088193;28;20044;-89
2021/06/11 03:33:54;;;;;;;10.93;9.48;;;18.20;99.90;;;;;;5088680;28;20477;-90
2021/06/11 03:36:28;;;;;;;10.73;9.48;;;18.20;99.90;;;;;;5107336;28;20070;-89
2021/06/11 03:38:59;;;;;;;10.30;9.40;;;18.30;99.90;;;;;;5090594;28;20024;-89
2021/06/11 03:41:25;;;;;;;10.15;9.25;;;18.30;99.90;;;;;;5089932;28;20040;-89
2021/06/11 03:43:53;;;;;;;10.13;9.13;;;18.40;99.90;;;;;;5088705;28;20043;-89
2021/06/11 03:46:20;;;;;;;8.80;8.00;;;18.40;99.90;;;;;;5108150;28;20036;-89
2021/06/11 03:48:50;;;;;;;9.65;8.75;;;18.40;99.90;;;;;;5091878;28;20038;-89
2021/06/11 03:51:19;;;;;;;11.25;10.15;;;18.50;99.90;;;;;;5093173;28;20058;-89
2021/06/11 03:53:46;;;;;;;9.27;8.38;;;18.50;99.90;;;;;;5092426;28;20048;-88
2021/06/11 03:56:15;;;;;;;11.32;10.13;;;18.50;99.90;;;;;;5091802;28;20127;-89
2021/06/11 03:58:42;;;;;;;9.60;8.70;;;18.50;99.90;;;;;;5090383;28;20087;-89
2021/06/11 04:01:15;;;;;;;9.57;8.70;;;18.40;99.90;;;;;;5096458;28;20039;-89
2021/06/11 04:03:41;;;;;;;9.73;8.80;;;18.40;99.90;;;;;;5092558;28;20065;-88
2021/06/11 04:06:14;;;;;;;9.07;8.20;;;18.40;99.90;;;;;;5100210;28;20044;-90
2021/06/11 04:08:42;;;;;;;9.70;8.70;;;18.50;99.90;;;;;;5097013;28;20056;-90
2021/06/11 04:11:16;;;;;;;9.50;8.63;;;18.50;99.90;;;;;;5091296;28;20453;-90
2021/06/11 04:14:01;;;;;;;9.48;8.50;;;18.50;99.90;;;;;;5091474;28;20127;-90
2021/06/11 04:16:38;;;;;;;9.00;8.23;;;18.50;99.90;;;;;;5090317;28;20056;-91
2021/06/11 04:19:06;;;;;;;9.30;8.40;;;18.50;99.90;;;;;;5090017;28;20036;-89
2021/06/11 04:21:34;;;;;;;8.95;8.00;;;18.50;99.90;;;;;;5095081;28;20036;-89
2021/06/11 04:24:04;;;;;;;10.32;9.32;;;18.50;99.90;;;;;;5088493;28;20055;-90
2021/06/11 04:26:33;;;;;;;12.32;9.70;;;18.50;99.90;;;;;;5083928;28;20038;-89
2021/06/11 04:29:01;;;;;;;11.43;9.77;;;18.50;99.90;;;;;;5100373;28;20039;-89
2021/06/11 04:31:30;;;;;;;10.48;9.32;;;18.40;99.90;;;;;;5079744;28;20036;-90
2021/06/11 04:33:58;;;;;;;9.90;8.95;;;18.30;99.90;;;;;;5078092;28;20119;-90
2021/06/11 04:36:24;;;;;;;10.02;8.52;;;18.40;99.90;;;;;;5078205;28;20032;-90
2021/06/11 04:38:59;;;;;;;9.30;8.40;;;18.40;99.90;;;;;;5078019;28;20060;-90
2021/06/11 04:41:27;;;;;;;9.43;8.52;;;18.40;99.90;;;;;;5078897;28;20431;-90
2021/06/11 04:43:55;;;;;;;8.40;7.70;;;18.40;99.90;;;;;;5077440;28;20481;-90
2021/06/11 04:46:21;;;;;;;8.95;8.15;;;18.50;99.90;;;;;;5096629;28;20028;-89
2021/06/11 04:48:47;;;;;;;9.90;8.90;;;18.50;99.90;;;;;;5079903;28;20054;-89
2021/06/11 04:51:13;;;;;;;9.00;8.20;;;18.60;99.90;;;;;;5063608;28;20034;-89
2021/06/11 04:53:39;;;;;;;9.07;8.18;;;18.70;99.90;;;;;;5077612;28;20032;-90
2021/06/11 04:56:08;;;;;;;10.52;9.43;;;18.60;99.90;;;;;;5098301;28;20032;-90
2021/06/11 04:58:38;;;;;;;10.35;9.10;;;18.70;99.90;;;;;;5097958;28;20021;-89
2021/06/11 05:01:05;;;;;;;9.93;8.93;;;18.60;99.90;;;;;;5089858;28;20039;-89
2021/06/11 05:03:31;;;;;;;10.30;9.23;;;18.60;99.90;;;;;;5105368;22;20075;-89
2021/06/11 05:06:01;;;;;;;9.32;8.38;;;18.60;99.90;;;;;;5022124;28;20042;-90
2021/06/11 05:08:27;;;;;;;9.93;8.00;;;18.70;99.90;;;;;;5094219;28;20037;-89
2021/06/11 05:10:53;;;;;;;8.77;7.97;;;18.70;99.90;;;;;;5107094;28;20445;-89
2021/06/11 05:13:19;;;;;;;9.85;8.85;;;18.70;99.90;;;;;;5108901;28;20085;-89
2021/06/11 05:15:45;;;;;;;10.35;9.23;;;18.70;99.90;;;;;;5115457;28;20040;-88
2021/06/11 05:18:11;;;;;;;9.55;8.65;;;18.70;99.90;;;;;;5113549;28;20024;-90
2021/06/11 05:20:38;;;;;;;9.50;8.48;;;18.70;99.90;;;;;;5113569;28;20050;-90
2021/06/11 05:23:07;;;;;;;11.00;9.77;;;18.60;99.90;;;;;;5106372;28;20046;-89
2021/06/11 05:25:34;;;;;;;9.50;8.60;;;18.70;99.90;;;;;;5102978;28;20074;-90
2021/06/11 05:27:59;;;;;;;11.70;8.50;;;18.70;99.90;;;;;;5097953;28;20088;-89
2021/06/11 05:30:27;;;;;;;9.60;8.70;;;18.70;99.90;;;;;;5098988;28;20396;-89
2021/06/11 05:32:52;;;;;;;8.95;8.15;;;18.70;99.90;;;;;;5098594;28;20034;-90
2021/06/11 05:35:18;;;;;;;9.45;8.55;;;18.70;99.90;;;;;;5099184;28;20031;-88
2021/06/11 05:37:45;;;;;;;8.82;7.97;;;18.70;99.90;;;;;;5117642;28;20031;-89
2021/06/11 05:40:11;;;;;;;8.65;7.75;;;18.70;99.90;;;;;;5100235;28;20122;-90
2021/06/11 05:42:37;;;;;;;8.27;7.47;;;18.70;99.90;;;;;;5098936;28;20031;-89
2021/06/11 05:45:05;;;;;;;8.52;7.82;;;18.80;99.90;;;;;;5097901;28;20143;-89
2021/06/11 05:47:30;;;;;;;7.90;7.18;;;18.80;99.90;;;;;;5116140;28;20039;-90
2021/06/11 05:49:56;;;;;;;8.40;7.40;;;18.80;99.90;;;;;;5116559;28;20028;-89
2021/06/11 05:52:21;;;;;;;7.60;6.68;;;18.90;99.90;;;;;;5094830;28;20084;-89
2021/06/11 05:54:47;;;;;;;6.13;5.53;;;18.90;99.90;;;;;;5093174;28;20388;-89
2021/06/11 05:57:13;;;;;;;6.10;5.57;;;19.00;99.90;;;;;;5093863;28;20031;-89
2021/06/11 05:59:39;;;;;;;6.65;6.05;;;19.00;99.90;;;;;;5093763;28;20046;-89
2021/06/11 06:02:04;;;;;;;7.38;6.68;;;19.10;99.90;;;;;;5095558;28;20035;-90
2021/06/11 06:04:30;;;;;;;6.55;5.95;;;19.10;99.90;;;;;;5096250;28;20104;-91
2021/06/11 06:06:59;;;;;;;6.78;6.18;;;19.20;99.90;;;;;;5095685;28;20039;-89
2021/06/11 06:09:25;;;;;;;5.70;5.20;;;19.30;99.90;;;;;;5096895;28;20028;-89
2021/06/11 06:11:51;;;;;;;5.00;4.60;;;19.40;99.90;;;;;;5097900;28;20031;-89
2021/06/11 06:14:17;;;;;;;4.45;4.05;;;19.50;99.90;;;;;;5097404;28;20024;-89
2021/06/11 06:16:43;;;;;;;5.45;4.95;;;19.70;99.90;;;;;;5096872;28;20043;-89
2021/06/11 06:19:09;;;;;;;5.22;4.80;;;19.80;99.90;;;;;;5096472;28;20243;-90
2021/06/11 06:21:35;;;;;;;5.40;4.63;;;20.00;99.90;;;;;;5114931;28;20028;-89
2021/06/11 06:24:01;;;;;;;5.32;4.15;;;20.20;99.90;;;;;;5115689;28;20050;-90
2021/06/11 06:26:28;;;;;;;4.82;4.43;;;20.40;99.90;;;;;;5096926;28;20427;-89
2021/06/11 06:28:55;;;;;;;6.05;5.53;;;20.70;99.90;;;;;;5094577;28;20445;-88
2021/06/11 06:31:23;;;;;;;7.25;6.55;;;20.90;99.90;;;;;;5092576;28;20127;-88
2021/06/11 06:33:51;;;;;;;6.10;5.60;;;21.20;99.90;;;;;;5097377;28;20078;-88
2021/06/11 06:36:17;;;;;;;5.47;4.97;;;21.50;99.90;;;;;;5081636;28;20039;-88
2021/06/11 06:38:43;;;;;;;6.10;5.57;;;21.80;99.90;;;;;;5095885;28;20036;-87
2021/06/11 06:41:09;;;;;;;5.18;4.78;;;22.00;99.90;;;;;;5097659;28;20036;-88
2021/06/11 06:43:35;;;;;;;5.30;4.80;;;22.20;99.90;;;;;;5098109;28;20050;-87
2021/06/11 06:46:05;;;;;;;5.72;4.90;;;22.40;99.90;;;;;;5100828;28;20075;-87
2021/06/11 06:48:31;;;;;;;5.10;4.70;;;22.40;99.90;;;;;;5108188;28;20028;-87
2021/06/11 06:50:58;;;;;;;4.40;4.00;;;22.60;99.90;;;;;;5114613;28;20103;-88
2021/06/11 06:53:24;;;;;;;5.03;4.63;;;22.70;99.90;;;;;;5130740;28;20035;-88
2021/06/11 06:55:50;;;;;;;4.65;4.25;;;22.80;99.90;;;;;;5108878;28;20028;-89
2021/06/11 06:58:16;;;;;;;4.50;4.15;;;22.90;99.90;;;;;;5099715;28;20081;-89
2021/06/11 07:00:42;;;;;;;4.72;4.32;;;22.90;99.20;;;;;;5101069;28;20036;-88
2021/06/11 07:03:08;;;;;;;4.82;4.28;;;23.00;98.80;;;;;;5098884;28;20041;-89
2021/06/11 07:05:37;;;;;;;4.20;3.90;;;23.00;98.20;;;;;;5089327;28;20488;-90
2021/06/11 07:08:02;;;;;;;4.05;3.75;;;22.90;98.10;;;;;;5090203;28;20431;-89
2021/06/11 07:10:28;;;;;;;3.95;3.65;;;22.80;97.80;;;;;;5090732;28;20039;-89
2021/06/11 07:12:54;;;;;;;4.47;4.10;;;22.80;98.10;;;;;;5109912;28;20488;-88
2021/06/11 07:15:20;;;;;;;4.60;4.20;;;22.70;97.90;;;;;;5092862;28;20038;-90
2021/06/11 07:17:46;;;;;;;4.75;4.35;;;22.60;97.40;;;;;;5092716;28;20039;-89
2021/06/11 07:20:12;;;;;;;4.97;4.50;;;22.70;97.70;;;;;;5095692;28;20036;-88
2021/06/11 07:22:38;;;;;;;5.65;4.45;;;22.80;97.60;;;;;;5116821;28;20035;-89
2021/06/11 07:25:06;;;;;;;6.88;5.35;;;22.90;97.40;;;;;;5095788;28;20040;-89
2021/06/11 07:27:33;;;;;;;5.38;4.88;;;23.10;96.80;;;;;;5093487;28;20137;-88
2021/06/11 07:30:00;;;;;;;5.90;5.40;;;23.20;96.10;;;;;;5094967;28;20032;-88
2021/06/11 07:32:26;;;;;;;5.65;5.18;;;23.20;95.70;;;;;;5113001;28;20027;-88
2021/06/11 07:34:52;;;;;;;5.65;5.15;;;23.10;95.50;;;;;;5094101;28;20112;-88
2021/06/11 07:37:18;;;;;;;5.10;4.70;;;23.10;96.10;;;;;;5094777;28;20032;-88
2021/06/11 07:39:44;;;;;;;5.03;4.63;;;23.10;96.20;;;;;;5093802;28;20126;-88
2021/06/11 07:42:14;;;;;;;4.70;4.28;;;23.20;96.40;;;;;;5095335;28;20516;-89
2021/06/11 07:44:40;;;;;;;4.15;3.85;;;23.40;97.30;;;;;;5097458;28;20066;-89
2021/06/11 07:47:06;;;;;;;4.30;3.92;;;23.70;97.60;;;;;;5096622;28;20039;-88
2021/06/11 07:49:32;;;;;;;4.32;4.03;;;24.10;97.30;;;;;;5097007;28;20031;-88
2021/06/11 07:51:59;;;;;;;3.45;3.25;;;24.60;96.50;;;;;;5096209;28;20043;-88
2021/06/11 07:54:25;;;;;;;3.75;3.47;;;25.10;94.60;;;;;;5101677;28;20042;-89
2021/06/11 07:56:51;;;;;;;4.03;3.72;;;25.40;93.10;;;;;;5114917;28;20028;-90
2021/06/11 07:59:17;;;;;;;3.10;2.90;;;25.80;92.10;;;;;;5120649;28;20043;-88
2021/06/11 08:01:43;;;;;;;4.30;3.50;;;25.90;90.60;;;;;;5119503;28;20035;-89
2021/06/11 08:04:10;;;;;;;3.60;3.30;;;25.90;88.30;;;;;;5112458;28;20529;-88
2021/06/11 08:06:35;;;;;;;3.60;3.30;;;25.90;87.20;;;;;;5096732;28;20055;-88
2021/06/11 08:09:02;;;;;;;3.25;3.05;;;25.90;86.40;;;;;;5098035;28;20031;-89
2021/06/11 08:11:28;;;;;;;3.10;2.90;;;25.90;86.30;;;;;;5094981;28;20039;-88
2021/06/11 08:13:53;;;;;;;3.85;3.15;;;26.00;85.70;;;;;;5094374;28;20031;-88
2021/06/11 08:16:19;;;;;;;3.17;2.97;;;26.40;86.90;;;;;;5094455;28;20039;-88
2021/06/11 08:18:48;;;;;;;2.70;2.50;;;26.60;83.70;;;;;;5096683;28;20027;-87
2021/06/11 08:21:14;;;;;;;2.78;2.58;;;26.50;80.40;;;;;;5099144;28;20067;-89
2021/06/11 08:23:41;;;;;;;2.55;2.45;;;26.10;79.20;;;;;;5096798;28;20055;-88
2021/06/11 08:26:06;;;;;;;2.60;2.40;;;25.50;79.70;;;;;;5097312;28;20505;-88
2021/06/11 08:28:32;;;;;;;2.88;2.67;;;25.10;81.40;;;;;;5096719;28;20144;-88
2021/06/11 08:30:58;;;;;;;2.30;2.20;;;24.60;81.80;;;;;;5096068;28;20044;-88
2021/06/11 08:33:24;;;;;;;2.80;2.60;;;24.20;83.20;;;;;;5097167;28;20028;-87
2021/06/11 08:35:49;;;;;;;3.10;2.90;;;23.90;85.10;;;;;;5081031;28;20043;-88
2021/06/11 08:38:15;;;;;;;2.30;2.20;;;23.70;86.70;;;;;;5096559;28;20038;-88
2021/06/11 08:40:41;;;;;;;2.20;2.10;;;23.60;87.50;;;;;;5113303;28;20053;-87
2021/06/11 08:43:08;;;;;;;2.40;2.30;;;23.50;88.30;;;;;;5114570;28;20027;-88
2021/06/11 08:45:33;;;;;;;2.13;2.03;;;23.40;88.60;;;;;;5113314;28;20088;-89
2021/06/11 08:48:00;;;;;;;2.15;2.00;;;23.40;88.30;;;;;;5100714;28;20122;-86
2021/06/11 08:50:31;;;;;;;2.35;2.15;;;23.30;88.00;;;;;;5096723;28;20032;-88
2021/06/11 08:52:59;;;;;;;2.00;1.90;;;23.40;87.70;;;;;;5094707;28;20023;-88
2021/06/11 08:55:26;;;;;;;1.73;1.63;;;23.30;87.30;;;;;;5109787;28;20397;-87
2021/06/11 08:57:52;;;;;;;1.85;1.75;;;23.20;87.30;;;;;;5094507;28;20032;-88
2021/06/11 09:00:19;;;;;;;1.73;1.63;;;23.20;88.00;;;;;;5095163;28;20027;-87
2021/06/11 09:03:24;;;;;;;1.50;1.40;;;23.10;88.90;;;;;;5113375;28;20023;-87
2021/06/11 09:06:05;;;;;;;1.45;1.40;;;23.20;89.50;;;;;;5096389;28;20058;-87
2021/06/11 09:08:39;;;;;;;1.10;1.10;;;23.40;88.60;;;;;;5096607;28;20027;-88
2021/06/11 09:11:38;;;;;;;1.27;1.10;;;23.60;89.00;;;;;;5097186;28;20055;-87
2021/06/11 09:14:12;;;;;;;1.23;1.13;;;24.00;87.40;;;;;;5096814;28;20044;-87
2021/06/11 09:16:46;;;;;;;1.25;1.15;;;24.40;87.20;;;;;;5095702;28;20331;-87
2021/06/11 09:19:18;;;;;;;0.90;0.90;;;25.00;86.60;;;;;;5095915;28;20069;-88
2021/06/11 09:21:49;;;;;;;1.15;1.13;;;25.60;84.00;;;;;;5099941;28;20039;-88
2021/06/11 09:24:28;;;;;;;2.55;1.13;;;26.20;82.10;;;;;;5103405;28;20099;-88
2021/06/11 09:26:57;;;;;;;1.60;1.17;;;26.90;77.80;;;;;;5113134;28;20028;-89
2021/06/11 09:29:26;;;;;;;1.40;1.30;;;27.80;78.10;;;;;;5130921;28;20034;-90
2021/06/11 09:32:12;;;;;;;1.15;1.00;;;28.50;76.30;;;;;;5103170;28;20038;-88
2021/06/11 09:34:39;;;;;;;1.00;0.90;;;29.20;70.20;;;;;;5097205;28;20059;-89
2021/06/11 09:37:14;;;;;;;1.63;1.20;;;29.50;70.90;;;;;;5096640;28;20031;-88
2021/06/11 09:39:41;;;;;;;1.30;1.20;;;29.40;68.50;;;;;;5099836;28;20046;-88
2021/06/11 09:42:08;;;;;;;1.45;1.35;;;29.70;69.40;;;;;;5099598;28;20038;-89
2021/06/11 09:44:33;;;;;;;1.50;1.40;;;30.30;68.50;;;;;;5099125;28;20501;-90
2021/06/11 09:46:59;;;;;;;1.48;1.38;;;31.00;67.30;;;;;;5098666;28;20153;-89
2021/06/11 09:49:28;;;;;;;1.60;1.50;;;31.40;65.50;;;;;;5101267;28;20035;-88
2021/06/11 09:52:10;;;;;;;1.75;1.65;;;32.20;64.80;;;;;;5098242;28;20118;-89
2021/06/11 09:54:36;;;;;;;1.90;1.80;;;32.60;59.90;;;;;;5098657;28;20062;-88
2021/06/11 09:57:21;;;;;;;1.90;1.80;;;32.40;60.50;;;;;;5095095;28;20031;-91
2021/06/11 09:59:46;;;;;;;2.08;1.88;;;31.90;59.00;;;;;;5095608;28;20028;-89
2021/06/11 10:02:17;;;;;;;2.28;1.77;;;31.10;59.50;;;;;;5104290;28;20028;-89
2021/06/11 10:04:46;;;;;;;1.50;1.40;;;30.70;60.30;;;;;;5105951;28;20096;-86
2021/06/11 10:07:13;;;;;;;1.52;1.45;;;30.30;60.50;;;;;;5114368;28;20418;-86
2021/06/11 10:09:40;;;;;;;1.23;1.23;;;29.90;60.60;;;;;;5096804;28;20037;-89
2021/06/11 10:12:07;;;;;;;2.33;1.60;;;29.60;61.40;;;;;;5096279;28;20369;-89
2021/06/11 10:14:34;;;;;;;1.77;1.63;;;29.70;62.30;;;;;;5097055;28;20127;-88
2021/06/11 10:17:00;;;;;;;2.03;1.60;;;30.40;62.90;;;;;;5097117;28;20031;-88
2021/06/11 10:19:26;;;;;;;1.70;1.60;;;31.20;61.50;;;;;;5113894;28;20608;-88
2021/06/11 10:21:53;;;;;;;1.05;1.05;;;31.90;61.00;;;;;;5114350;28;20429;-87
2021/06/11 10:24:34;;;;;;;0.80;0.80;;;32.50;59.10;;;;;;5075480;28;20080;-89
2021/06/11 10:27:01;;;;;;;1.20;1.20;;;33.10;58.60;;;;;;5098050;28;20045;-88
2021/06/11 10:29:27;;;;;;;1.10;1.00;;;33.60;57.60;;;;;;5096569;28;20122;-88
2021/06/11 10:31:54;;;;;;;1.23;1.20;;;34.00;57.30;;;;;;5098473;28;20048;-90
2021/06/11 10:34:20;;;;;;;1.30;1.13;;;34.10;54.10;;;;;;5101535;28;20043;-88
2021/06/11 10:36:46;;;;;;;1.00;1.00;;;33.90;54.50;;;;;;5100476;28;20328;-90
2021/06/11 10:39:13;;;;;;;0.85;0.82;;;34.00;54.90;;;;;;5104182;28;20028;-88
2021/06/11 10:41:56;;;;;;;0.80;0.80;;;34.40;54.30;;;;;;5124399;28;20058;-89
2021/06/11 10:44:36;;;;;;;0.77;0.77;;;34.60;51.00;;;;;;5108592;28;20043;-89
2021/06/11 10:47:17;;;;;;;0.50;0.50;;;34.10;50.20;;;;;;5103042;28;20024;-89
2021/06/11 10:49:58;;;;;;;0.57;0.57;;;33.40;50.30;;;;;;5096315;28;20036;-89
2021/06/11 10:52:44;;;;;;;0.60;0.60;;;32.70;50.80;;;;;;5093518;28;20036;-89
2021/06/11 10:55:24;;;;;;;1.95;0.70;;;32.50;51.30;;;;;;5094008;28;20036;-89
2021/06/11 10:57:53;;;;;;;1.08;0.70;;;33.20;51.80;;;;;;5092208;28;20039;-90
2021/06/11 11:00:28;;;;;;;0.93;0.93;;;34.00;53.20;;;;;;5091097;28;20040;-88
2021/06/11 11:02:58;;;;;;;1.08;1.00;;;34.90;51.80;;;;;;5091821;28;20184;-89
2021/06/11 11:05:33;;;;;;;0.88;0.73;;;35.70;52.10;;;;;;5093387;28;20044;-90
2021/06/11 11:08:00;;;;;;;0.65;0.65;;;36.70;47.90;;;;;;5110792;28;20028;-89
2021/06/11 11:10:48;;;;;;;0.70;0.60;;;37.10;49.10;;;;;;5109808;28;20562;-88
2021/06/11 11:13:15;;;;;;;1.92;0.60;;;37.30;47.10;;;;;;5094937;28;20126;-90
2021/06/11 11:15:43;;;;;;;0.75;0.75;;;36.90;47.70;;;;;;5100603;28;20047;-89
2021/06/11 11:18:13;;;;;;;1.20;0.70;;;36.30;47.60;;;;;;5103328;28;20365;-90
2021/06/11 11:20:41;;;;;;;0.80;0.80;;;35.80;48.20;;;;;;5100374;28;20059;-88
2021/06/11 11:23:12;;;;;;;1.10;1.10;;;35.70;48.90;;;;;;5113765;28;20094;-88
2021/06/11 11:25:39;;;;;;;2.15;0.63;;;36.10;49.50;;;;;;5096450;28;20048;-89
2021/06/11 11:28:09;;;;;;;2.33;0.88;;;36.80;48.80;;;;;;5082982;28;20056;-90
2021/06/11 11:30:36;;;;;;;1.67;0.85;;;37.60;47.70;;;;;;5096094;28;20506;-91
2021/06/11 11:33:04;;;;;;;0.95;0.80;;;38.00;46.70;;;;;;5097370;28;20062;-90
2021/06/11 11:35:33;;;;;;;0.80;0.80;;;37.50;46.00;;;;;;5124449;28;20325;-89
2021/06/11 11:38:04;;;;;;;1.25;1.00;;;36.80;45.70;;;;;;5110112;28;20024;-87
2021/06/11 11:40:30;;;;;;;1.00;1.00;;;36.10;46.40;;;;;;5109543;28;20039;-89
2021/06/11 11:42:59;;;;;;;1.30;0.88;;;35.50;47.10;;;;;;5104959;28;20043;-90
2021/06/11 11:45:26;;;;;;;0.63;0.63;;;35.30;47.80;;;;;;5101124;28;20114;-89
2021/06/11 11:47:58;;;;;;;0.70;0.70;;;35.70;47.80;;;;;;5100350;28;20027;-89
2021/06/11 11:50:26;;;;;;;1.02;1.02;;;35.60;47.40;;;;;;5105654;28;20116;-89
2021/06/11 11:52:55;;;;;;;1.02;0.95;;;35.00;46.90;;;;;;5126871;28;20055;-88
2021/06/11 11:55:22;;;;;;;0.93;0.93;;;34.50;47.70;;;;;;5105626;28;20107;-89
2021/06/11 11:57:47;;;;;;;2.67;1.23;;;34.10;48.30;;;;;;5103493;28;20031;-89
2021/06/11 12:00:15;;;;;;;1.92;1.60;;;34.10;49.70;;;;;;5118835;28;20423;-90
2021/06/11 12:02:42;;;;;;;1.27;1.17;;;34.80;49.30;;;;;;5097619;28;20020;-89
2021/06/11 12:05:09;;;;;;;1.20;1.10;;;35.30;48.70;;;;;;5100195;28;20052;-89
2021/06/11 12:07:34;;;;;;;1.13;0.93;;;35.30;48.10;;;;;;5098757;28;20043;-88
2021/06/11 12:10:00;;;;;;;1.17;1.17;;;35.10;47.80;;;;;;5098620;28;20429;-90
2021/06/11 12:12:26;;;;;;;1.30;1.20;;;34.60;47.70;;;;;;5099407;28;20040;-90
2021/06/11 12:14:53;;;;;;;2.30;1.35;;;33.90;47.70;;;;;;5098523;28;20504;-88
2021/06/11 12:17:19;;;;;;;1.38;1.27;;;33.00;48.80;;;;;;5098381;28;20122;-89
2021/06/11 12:19:45;;;;;;;1.85;1.50;;;32.30;49.30;;;;;;5101601;28;20046;-89
2021/06/11 12:22:13;;;;;;;3.25;1.30;;;31.50;50.10;;;;;;5107436;28;20127;-89
2021/06/11 12:24:39;;;;;;;1.20;1.20;;;31.00;50.80;;;;;;5113271;28;20044;-89
2021/06/11 12:27:05;;;;;;;1.25;1.23;;;30.50;51.70;;;;;;5112720;28;20086;-86
2021/06/11 12:29:31;;;;;;;1.42;1.33;;;30.00;52.50;;;;;;5114249;28;20035;-90
2021/06/11 12:31:57;;;;;;;1.20;1.20;;;29.70;53.00;;;;;;5102022;28;20036;-88
2021/06/11 12:34:22;;;;;;;3.28;1.30;;;29.50;53.30;;;;;;5115929;28;20028;-88
2021/06/11 12:36:48;;;;;;;2.90;1.42;;;29.40;53.60;;;;;;5115497;28;20477;-89
2021/06/11 12:39:14;;;;;;;1.40;1.20;;;29.50;53.80;;;;;;5098729;28;20038;-89
2021/06/11 12:41:41;;;;;;;3.28;1.35;;;29.70;53.80;;;;;;5115963;28;20504;-90
2021/06/11 12:44:18;;;;;;;1.58;1.40;;;29.90;53.20;;;;;;5096263;28;20040;-89
2021/06/11 12:46:46;;;;;;;2.92;1.50;;;29.90;53.00;;;;;;5097132;28;20134;-88
2021/06/11 12:49:12;;;;;;;1.13;1.13;;;29.70;52.70;;;;;;5096550;28;20109;-88
2021/06/11 12:51:38;;;;;;;1.45;1.35;;;29.40;53.10;;;;;;5098483;28;20032;-89
2021/06/11 12:54:04;;;;;;;3.17;1.40;;;29.10;53.60;;;;;;5096431;28;20044;-89